Corona — V7EL5 — position and weather

sailwx.info

Track history (hours):
 
Tides and Currents Weather Stations Pressure Air Temp Water Temp Dewpoint Dewpoint Depression Visibility Wind Speed Wind Dir Waves Ship Positions

Corona

Last reported at 2018-Jun-21 21:00 UTC. Time now 2018-Jun-25 03:49 UTC.
Position N 29°58' W 013°54'.

Length 187 m; draft 10.5 m.

Type: Cargo ship. MMSI: 538005490.

Date/timePositionNaut miles runAvg speedWind from/ knotsBaromVisibWave heightAir tempDewpointWater temp
2018-Jun-21 21:00N 29°58' W 013°54'612.4
2018-Jun-21 20:29N 29°54' W 013°60'612.0
2018-Jun-21 19:57N 29°49' W 014°05'612.1
2018-Jun-21 19:25N 29°45' W 014°11'512.4
2018-Jun-21 19:00N 29°42' W 014°15'612.6
2018-Jun-21 18:30N 29°37' W 014°21'612.6
2018-Jun-21 17:59N 29°33' W 014°26'612.2
2018-Jun-21 17:29N 29°29' W 014°31'612.0
2018-Jun-21 16:57N 29°25' W 014°37'612.4
2018-Jun-21 16:30N 29°21' W 014°42'612.3
2018-Jun-21 16:00N 29°17' W 014°47'612.1
2018-Jun-21 15:30N 29°13' W 014°52'611.9
2018-Jun-21 15:00N 29°09' W 014°57'611.9
2018-Jun-21 14:30N 29°05' W 015°02'612.0
2018-Jun-21 14:00N 29°01' W 015°07'612.1
2018-Jun-21 13:30N 28°57' W 015°13'612.0
2018-Jun-21 13:00N 28°53' W 015°18'612.1
2018-Jun-21 12:30N 28°49' W 015°23'612.2
2018-Jun-21 12:00N 28°45' W 015°28'612.1
2018-Jun-21 11:30N 28°41' W 015°33'612.2
2018-Jun-21 11:00N 28°37' W 015°38'612.3
2018-Jun-21 10:30N 28°32' W 015°43'612.6
2018-Jun-21 10:00N 28°27' W 015°48'612.5
2018-Jun-21 09:30N 28°23' W 015°52'612.1
2018-Jun-21 08:59N 28°18' W 015°57'611.8
2018-Jun-21 08:30N 28°13' W 016°01'611.9
2018-Jun-21 07:59N 28°09' W 016°06'  
Track history (hours):
 
Tides and Currents Weather Stations Pressure Air Temp Water Temp Dewpoint Dewpoint Depression Visibility Wind Speed Wind Dir Waves Ship Positions

Corona

Last reported at 2018-Jun-21 21:00 UTC. Time now 2018-Jun-25 03:49 UTC.
Position N 29°58' W 013°54'.

Length 187 m; draft 10.5 m.

Type: Cargo ship. MMSI: 538005490.

Date/timePositionNaut miles runAvg speedWind from/ knotsBaromVisibWave heightAir tempDewpointWater temp
2018-Jun-21 21:00N 29°58' W 013°54'612.4
2018-Jun-21 20:29N 29°54' W 013°60'612.0
2018-Jun-21 19:57N 29°49' W 014°05'612.1
2018-Jun-21 19:25N 29°45' W 014°11'512.4
2018-Jun-21 19:00N 29°42' W 014°15'612.6
2018-Jun-21 18:30N 29°37' W 014°21'612.6
2018-Jun-21 17:59N 29°33' W 014°26'612.2
2018-Jun-21 17:29N 29°29' W 014°31'612.0
2018-Jun-21 16:57N 29°25' W 014°37'612.4
2018-Jun-21 16:30N 29°21' W 014°42'612.3
2018-Jun-21 16:00N 29°17' W 014°47'612.1
2018-Jun-21 15:30N 29°13' W 014°52'611.9
2018-Jun-21 15:00N 29°09' W 014°57'611.9
2018-Jun-21 14:30N 29°05' W 015°02'612.0
2018-Jun-21 14:00N 29°01' W 015°07'612.1
2018-Jun-21 13:30N 28°57' W 015°13'612.0
2018-Jun-21 13:00N 28°53' W 015°18'612.1
2018-Jun-21 12:30N 28°49' W 015°23'612.2
2018-Jun-21 12:00N 28°45' W 015°28'612.1
2018-Jun-21 11:30N 28°41' W 015°33'612.2
2018-Jun-21 11:00N 28°37' W 015°38'612.3
2018-Jun-21 10:30N 28°32' W 015°43'612.6
2018-Jun-21 10:00N 28°27' W 015°48'612.5
2018-Jun-21 09:30N 28°23' W 015°52'612.1
2018-Jun-21 08:59N 28°18' W 015°57'611.8
2018-Jun-21 08:30N 28°13' W 016°01'611.9
2018-Jun-21 07:59N 28°09' W 016°06'  

Dump ship's entire track history